Decoded Metar for KSKF (SAN ANTONIO in TX, USA) (IATA:SKF) | Meteo·Mobile Aviation Weather
aviador You're here:

KSKF Decoded Metar

SAN ANTONIO in TX, USA
Report Time2018-11-19 08:56:00
UTC Time2018-11-19 09:20:34
Flight Rules mvfr MVFR
Wind040° at 07 kt
W.Decomp.*RWY 33: 3.2 kt HW 6.2 kt RCW
W.Rank040° ranks 8
Current wind is below 040° avg. (7.5)
Visibility9999 m
Phenomena:N/A
Clouds:Overcast 017 Hf
Expected CloudBase > 1,200 ft AGL from Temp-Dew spread
Ceiling1,700 ft
Temp09°C (ISA -5)
Dew Point06°C (82% RH)
AAT5.6°C
QNH1020 hPa
Density Alt26 ft
Elevation689 ft
Report Wrong Elevation
Raw Report
KSKF 190856Z AUTO 04007KT 10SM OVC017 09/06 A3013 RMK AO2 RAB27E48
SLP203 P0000 60000 T00930058 56005=

Extra information for KSKF:More info

Metar Taf Metar & Taf Last 4 Metars F.Rules Stats Wind Profile Meteogram Temp Stats Airport Information Weather charts Add Link Nearby VenuesMetar ALERT Operation Metar Decoded Social comments

AIRNAV info for KSKF